Leon, OK (73441)

6:20 AM CDT on August 20, 2014 (GMT -0500)
Rural | Change Station
CLOSE
Current Station
Personal Weather Station
Location: Saint Jo, TX
Elevation: 981 ft
Nearby Weather Stations

Elev 981 ft 33.84 °N, 97.58 °W | Updated 6 minutes ago

Light Rain
Light Rain
78.4 °F
Feels Like 81 °F
N
7.3
Wind Variable Wind from SSW

Today
High -- | Low -- °F
--% Chance of Precip.
Yesterday
High -- | Low -- °F
Precip. -- in
6:55 AM 8:10 PM
Waning Crescent, 22% visible
Pressure 29.92 in
Visibility 10.0 miles
Clouds Scattered Clouds 5000 ft
Scattered Clouds 7000 ft
Overcast 9000 ft
Heat Index 81 °F
Dew Point 69 °F
Humidity 74%
Rainfall 0.00 in
Snow Depth Not available.
UV 0 out of 12
Pollen 9.60 out of 12
Air Quality Not available.
Flu Activity Not available.
METAR K1F0 201115Z AUTO 18004KT 10SM -RA SCT050 SCT070 OVC090 25/20 A2992 RMK AO2

More Conditions Fewer Conditions

Pressure 29.92 in
Visibility 10.0 miles
Clouds Scattered Clouds 5000 ft
Scattered Clouds 7000 ft
Overcast 9000 ft
Heat Index 81 °F
Dew Point 69 °F
Humidity 74%
Rainfall 0.00 in
Snow Depth Not available.
UV 0 out of 12
Pollen 9.60 out of 12
Air Quality Not available.
Flu Activity Not available.
METAR K1F0 201115Z AUTO 18004KT 10SM -RA SCT050 SCT070 OVC090 25/20 A2992 RMK AO2

More Conditions Fewer Conditions

10-Day Weather Forecast

Almanac

Astronomy

Aug. 20, 2014 Rise Set
Actual Time 6:55 AM CDT 8:10 PM CDT
Civil Twilight 6:28 AM CDT 8:36 PM CDT
Nautical Twilight 5:57 AM CDT 9:07 PM CDT
Astronomical Twilight 5:25 AM CDT 9:40 PM CDT
Moon 2:41 AM CDT 4:52 PM CDT
Length of Visible Light 14h 07m
Length of Day
13h 15m
Tomorrow will be 1m 55s shorter.
Waning Crescent, 22% of the Moon is Illuminated
Today
Waning Crescent
Aug 25
New
Sep 2
First Quarter
Sep 8
Full
Sep 15
Last Quarter

Today's Extremes

State Highs State Lows

Community

WunderPhotos

Upload Photos

1,745,611 photos uploaded!

Nearby

Snow Depth

Station Depth Elevation
No new snow has been reported.

Earthquake Activity

City Distance Mag. Time & Date
Langston, Oklahoma 135 miles 2.9 9:49 PM CDT
2014-08-14
Boley, Oklahoma 112 miles 2.8 11:38 AM CDT
2014-08-14
Langston, Oklahoma 131 miles 3.1 9:15 AM CDT
2014-08-14
Minimum magnitude displayed is 2.5.

Coastal Water Temperatures

Place Temperature
No Stations Reporting

Nearby Weather Stations